sensor_id;sensor_type;location;lat;lon;timestamp;pressure;altitude;pressure_sealevel;temperature;humidity
71195;BME280;58908;51.426;7.714;2023-05-20T00:00:56;100492.97;;;9.37;100.00
71195;BME280;58908;51.426;7.714;2023-05-20T00:03:24;100481.44;;;9.18;100.00
71195;BME280;58908;51.426;7.714;2023-05-20T00:05:51;100479.25;;;9.08;100.00
71195;BME280;58908;51.426;7.714;2023-05-20T00:08:17;100483.84;;;9.03;100.00
71195;BME280;58908;51.426;7.714;2023-05-20T00:10:44;100481.75;;;8.89;100.00
71195;BME280;58908;51.426;7.714;2023-05-20T00:13:10;100476.50;;;9.11;100.00
71195;BME280;58908;51.426;7.714;2023-05-20T00:15:36;100474.34;;;8.99;100.00
71195;BME280;58908;51.426;7.714;2023-05-20T00:18:03;100476.88;;;9.23;100.00
71195;BME280;58908;51.426;7.714;2023-05-20T00:20:31;100479.19;;;9.09;100.00
71195;BME280;58908;51.426;7.714;2023-05-20T00:22:57;100481.50;;;8.95;100.00
71195;BME280;58908;51.426;7.714;2023-05-20T00:25:23;100487.38;;;8.80;100.00
71195;BME280;58908;51.426;7.714;2023-05-20T00:27:50;100484.13;;;8.74;100.00
71195;BME280;58908;51.426;7.714;2023-05-20T00:30:16;100482.81;;;8.62;100.00
71195;BME280;58908;51.426;7.714;2023-05-20T00:32:42;100488.97;;;8.61;100.00
71195;BME280;58908;51.426;7.714;2023-05-20T00:35:08;100485.13;;;8.70;100.00
71195;BME280;58908;51.426;7.714;2023-05-20T00:37:36;100485.72;;;8.55;100.00
71195;BME280;58908;51.426;7.714;2023-05-20T00:40:03;100483.88;;;8.57;100.00
71195;BME280;58908;51.426;7.714;2023-05-20T00:42:29;100483.38;;;8.47;100.00
71195;BME280;58908;51.426;7.714;2023-05-20T00:44:55;100474.63;;;8.47;100.00
71195;BME280;58908;51.426;7.714;2023-05-20T00:47:22;100473.53;;;8.52;100.00
71195;BME280;58908;51.426;7.714;2023-05-20T00:49:50;100475.16;;;8.33;100.00
71195;BME280;58908;51.426;7.714;2023-05-20T00:52:17;100471.78;;;8.30;100.00
71195;BME280;58908;51.426;7.714;2023-05-20T00:54:45;100478.03;;;8.26;100.00
71195;BME280;58908;51.426;7.714;2023-05-20T00:57:11;100470.28;;;8.23;100.00
71195;BME280;58908;51.426;7.714;2023-05-20T00:59:38;100463.97;;;8.27;100.00
71195;BME280;58908;51.426;7.714;2023-05-20T01:02:05;100471.69;;;8.31;100.00
71195;BME280;58908;51.426;7.714;2023-05-20T01:04:31;100474.44;;;8.28;100.00
71195;BME280;58908;51.426;7.714;2023-05-20T01:06:58;100464.22;;;8.21;100.00
71195;BME280;58908;51.426;7.714;2023-05-20T01:09:26;100460.44;;;8.03;100.00
71195;BME280;58908;51.426;7.714;2023-05-20T01:11:55;100459.53;;;8.04;100.00
71195;BME280;58908;51.426;7.714;2023-05-20T01:14:24;100460.50;;;8.02;100.00
71195;BME280;58908;51.426;7.714;2023-05-20T01:16:52;100465.97;;;7.96;100.00
71195;BME280;58908;51.426;7.714;2023-05-20T01:19:26;100466.94;;;7.93;100.00
71195;BME280;58908;51.426;7.714;2023-05-20T01:21:53;100466.81;;;7.96;100.00
71195;BME280;58908;51.426;7.714;2023-05-20T01:24:22;100465.34;;;7.89;100.00
71195;BME280;58908;51.426;7.714;2023-05-20T01:26:48;100462.03;;;7.83;100.00
71195;BME280;58908;51.426;7.714;2023-05-20T01:29:14;100464.03;;;7.76;100.00
71195;BME280;58908;51.426;7.714;2023-05-20T01:31:42;100461.53;;;7.73;100.00
71195;BME280;58908;51.426;7.714;2023-05-20T01:34:09;100458.84;;;7.75;100.00
71195;BME280;58908;51.426;7.714;2023-05-20T01:36:35;100452.72;;;7.74;100.00
71195;BME280;58908;51.426;7.714;2023-05-20T01:39:02;100462.53;;;7.69;100.00
71195;BME280;58908;51.426;7.714;2023-05-20T01:41:31;100455.66;;;7.65;100.00
71195;BME280;58908;51.426;7.714;2023-05-20T01:43:58;100457.63;;;7.59;100.00
71195;BME280;58908;51.426;7.714;2023-05-20T01:46:25;100457.72;;;7.57;100.00
71195;BME280;58908;51.426;7.714;2023-05-20T01:48:51;100448.13;;;7.56;100.00
71195;BME280;58908;51.426;7.714;2023-05-20T01:51:17;100453.38;;;7.56;100.00
71195;BME280;58908;51.426;7.714;2023-05-20T01:53:44;100459.78;;;7.48;100.00
71195;BME280;58908;51.426;7.714;2023-05-20T01:56:10;100452.13;;;7.42;100.00
71195;BME280;58908;51.426;7.714;2023-05-20T01:58:37;100456.34;;;7.46;100.00
71195;BME280;58908;51.426;7.714;2023-05-20T02:01:04;100445.00;;;7.45;100.00
71195;BME280;58908;51.426;7.714;2023-05-20T02:03:30;100442.53;;;7.41;100.00
71195;BME280;58908;51.426;7.714;2023-05-20T02:05:56;100440.41;;;7.52;100.00
71195;BME280;58908;51.426;7.714;2023-05-20T02:08:22;100439.81;;;7.68;100.00
71195;BME280;58908;51.426;7.714;2023-05-20T02:10:48;100438.25;;;7.87;100.00
71195;BME280;58908;51.426;7.714;2023-05-20T02:13:15;100438.47;;;7.81;100.00
71195;BME280;58908;51.426;7.714;2023-05-20T02:15:42;100442.91;;;8.04;100.00
71195;BME280;58908;51.426;7.714;2023-05-20T02:18:09;100443.44;;;8.13;100.00
71195;BME280;58908;51.426;7.714;2023-05-20T02:20:36;100450.44;;;7.90;100.00
71195;BME280;58908;51.426;7.714;2023-05-20T02:23:02;100450.53;;;7.87;100.00
71195;BME280;58908;51.426;7.714;2023-05-20T02:25:29;100450.22;;;7.71;100.00
71195;BME280;58908;51.426;7.714;2023-05-20T02:27:56;100448.53;;;7.69;100.00
71195;BME280;58908;51.426;7.714;2023-05-20T02:30:22;100451.00;;;7.73;100.00
71195;BME280;58908;51.426;7.714;2023-05-20T02:32:50;100452.72;;;7.74;100.00
71195;BME280;58908;51.426;7.714;2023-05-20T02:35:16;100451.63;;;7.81;100.00
71195;BME280;58908;51.426;7.714;2023-05-20T02:37:42;100450.06;;;8.00;100.00
71195;BME280;58908;51.426;7.714;2023-05-20T02:40:09;100444.81;;;8.00;100.00
71195;BME280;58908;51.426;7.714;2023-05-20T02:42:36;100453.84;;;8.16;100.00
71195;BME280;58908;51.426;7.714;2023-05-20T02:45:02;100448.63;;;8.15;100.00
71195;BME280;58908;51.426;7.714;2023-05-20T02:47:29;100446.09;;;8.59;100.00
71195;BME280;58908;51.426;7.714;2023-05-20T02:49:56;100446.78;;;8.64;100.00
71195;BME280;58908;51.426;7.714;2023-05-20T02:52:22;100445.94;;;8.64;100.00
71195;BME280;58908;51.426;7.714;2023-05-20T02:54:49;100449.97;;;8.51;100.00
71195;BME280;58908;51.426;7.714;2023-05-20T02:57:16;100450.69;;;8.31;100.00
71195;BME280;58908;51.426;7.714;2023-05-20T02:59:42;100445.19;;;8.13;100.00
71195;BME280;58908;51.426;7.714;2023-05-20T03:02:09;100442.75;;;8.08;100.00
71195;BME280;58908;51.426;7.714;2023-05-20T03:04:35;100455.25;;;8.02;100.00
71195;BME280;58908;51.426;7.714;2023-05-20T03:07:04;100447.38;;;8.26;100.00
71195;BME280;58908;51.426;7.714;2023-05-20T03:09:31;100445.28;;;8.11;100.00
71195;BME280;58908;51.426;7.714;2023-05-20T03:11:57;100446.16;;;8.10;100.00
71195;BME280;58908;51.426;7.714;2023-05-20T03:14:23;100439.13;;;8.12;100.00
71195;BME280;58908;51.426;7.714;2023-05-20T03:16:50;100449.50;;;8.15;100.00
71195;BME280;58908;51.426;7.714;2023-05-20T03:19:16;100454.81;;;8.38;100.00
71195;BME280;58908;51.426;7.714;2023-05-20T03:21:42;100451.25;;;8.39;100.00
71195;BME280;58908;51.426;7.714;2023-05-20T03:24:11;100444.06;;;8.44;100.00
71195;BME280;58908;51.426;7.714;2023-05-20T03:26:38;100433.00;;;8.58;100.00
71195;BME280;58908;51.426;7.714;2023-05-20T03:29:07;100436.78;;;8.74;100.00
71195;BME280;58908;51.426;7.714;2023-05-20T03:31:33;100435.69;;;8.79;100.00
71195;BME280;58908;51.426;7.714;2023-05-20T03:33:59;100440.09;;;9.00;100.00
71195;BME280;58908;51.426;7.714;2023-05-20T03:36:26;100431.47;;;8.97;100.00
71195;BME280;58908;51.426;7.714;2023-05-20T03:38:52;100438.06;;;9.07;100.00
71195;BME280;58908;51.426;7.714;2023-05-20T03:41:20;100440.50;;;8.90;100.00
71195;BME280;58908;51.426;7.714;2023-05-20T03:43:46;100440.94;;;8.79;100.00
71195;BME280;58908;51.426;7.714;2023-05-20T03:46:12;100425.25;;;8.76;100.00
71195;BME280;58908;51.426;7.714;2023-05-20T03:48:38;100424.84;;;8.87;100.00
71195;BME280;58908;51.426;7.714;2023-05-20T03:51:05;100422.81;;;9.15;100.00
71195;BME280;58908;51.426;7.714;2023-05-20T03:53:31;100424.97;;;9.05;100.00
71195;BME280;58908;51.426;7.714;2023-05-20T03:55:58;100428.66;;;9.01;100.00
71195;BME280;58908;51.426;7.714;2023-05-20T03:58:25;100427.13;;;8.96;100.00
71195;BME280;58908;51.426;7.714;2023-05-20T04:00:53;100423.63;;;8.95;100.00
71195;BME280;58908;51.426;7.714;2023-05-20T04:03:19;100424.69;;;8.91;100.00
71195;BME280;58908;51.426;7.714;2023-05-20T04:05:46;100425.69;;;8.87;100.00
71195;BME280;58908;51.426;7.714;2023-05-20T04:08:12;100427.41;;;8.88;100.00
71195;BME280;58908;51.426;7.714;2023-05-20T04:10:39;100421.97;;;8.93;100.00
71195;BME280;58908;51.426;7.714;2023-05-20T04:13:05;100421.19;;;8.91;100.00
71195;BME280;58908;51.426;7.714;2023-05-20T04:15:35;100430.13;;;8.87;100.00
71195;BME280;58908;51.426;7.714;2023-05-20T04:18:02;100426.56;;;8.88;100.00
71195;BME280;58908;51.426;7.714;2023-05-20T04:20:29;100427.34;;;8.90;100.00
71195;BME280;58908;51.426;7.714;2023-05-20T04:22:55;100429.19;;;8.88;100.00
71195;BME280;58908;51.426;7.714;2023-05-20T04:25:22;100423.25;;;8.83;100.00
71195;BME280;58908;51.426;7.714;2023-05-20T04:27:50;100424.16;;;8.82;100.00
71195;BME280;58908;51.426;7.714;2023-05-20T04:30:18;100421.13;;;8.92;100.00
71195;BME280;58908;51.426;7.714;2023-05-20T04:32:47;100417.25;;;9.01;100.00
71195;BME280;58908;51.426;7.714;2023-05-20T04:35:14;100408.69;;;9.17;100.00
71195;BME280;58908;51.426;7.714;2023-05-20T04:37:41;100411.41;;;9.36;100.00
71195;BME280;58908;51.426;7.714;2023-05-20T04:40:12;100405.75;;;9.44;100.00
71195;BME280;58908;51.426;7.714;2023-05-20T04:42:38;100404.44;;;9.54;100.00
71195;BME280;58908;51.426;7.714;2023-05-20T04:45:05;100400.94;;;9.54;100.00
71195;BME280;58908;51.426;7.714;2023-05-20T04:47:32;100400.84;;;9.57;100.00
71195;BME280;58908;51.426;7.714;2023-05-20T04:50:03;100398.91;;;9.60;100.00
71195;BME280;58908;51.426;7.714;2023-05-20T04:52:30;100409.44;;;9.60;100.00
71195;BME280;58908;51.426;7.714;2023-05-20T04:54:56;100404.91;;;9.64;100.00
71195;BME280;58908;51.426;7.714;2023-05-20T04:57:25;100405.81;;;9.63;100.00
71195;BME280;58908;51.426;7.714;2023-05-20T04:59:52;100398.84;;;9.62;100.00
71195;BME280;58908;51.426;7.714;2023-05-20T05:02:22;100411.97;;;9.63;100.00
71195;BME280;58908;51.426;7.714;2023-05-20T05:04:48;100409.00;;;9.71;100.00
71195;BME280;58908;51.426;7.714;2023-05-20T05:07:16;100410.06;;;9.67;100.00
71195;BME280;58908;51.426;7.714;2023-05-20T05:09:42;100407.28;;;9.70;100.00
71195;BME280;58908;51.426;7.714;2023-05-20T05:12:08;100409.63;;;9.76;100.00
71195;BME280;58908;51.426;7.714;2023-05-20T05:14:35;100415.19;;;9.70;100.00
71195;BME280;58908;51.426;7.714;2023-05-20T05:17:01;100419.53;;;9.71;100.00
71195;BME280;58908;51.426;7.714;2023-05-20T05:19:27;100423.28;;;9.85;100.00
71195;BME280;58908;51.426;7.714;2023-05-20T05:21:54;100416.69;;;9.95;100.00
71195;BME280;58908;51.426;7.714;2023-05-20T05:24:21;100412.19;;;9.97;100.00
71195;BME280;58908;51.426;7.714;2023-05-20T05:26:48;100412.63;;;10.08;100.00
71195;BME280;58908;51.426;7.714;2023-05-20T05:29:18;100409.63;;;10.16;100.00
71195;BME280;58908;51.426;7.714;2023-05-20T05:31:44;100408.44;;;10.23;100.00
71195;BME280;58908;51.426;7.714;2023-05-20T05:34:10;100404.78;;;10.25;100.00
71195;BME280;58908;51.426;7.714;2023-05-20T05:36:38;100409.00;;;10.29;100.00
71195;BME280;58908;51.426;7.714;2023-05-20T05:39:04;100401.53;;;10.57;100.00
71195;BME280;58908;51.426;7.714;2023-05-20T05:41:32;100406.31;;;10.68;100.00
71195;BME280;58908;51.426;7.714;2023-05-20T05:43:58;100405.66;;;10.63;100.00
71195;BME280;58908;51.426;7.714;2023-05-20T05:46:24;100401.38;;;10.60;100.00
71195;BME280;58908;51.426;7.714;2023-05-20T05:48:51;100404.50;;;10.68;100.00
71195;BME280;58908;51.426;7.714;2023-05-20T05:51:17;100412.78;;;10.79;100.00
71195;BME280;58908;51.426;7.714;2023-05-20T05:53:43;100408.22;;;10.83;100.00
71195;BME280;58908;51.426;7.714;2023-05-20T05:56:09;100404.72;;;10.82;100.00
71195;BME280;58908;51.426;7.714;2023-05-20T05:58:37;100400.09;;;11.04;100.00
71195;BME280;58908;51.426;7.714;2023-05-20T06:01:03;100395.09;;;11.17;100.00
71195;BME280;58908;51.426;7.714;2023-05-20T06:03:30;100397.19;;;11.10;100.00
71195;BME280;58908;51.426;7.714;2023-05-20T06:05:56;100392.06;;;11.24;100.00
71195;BME280;58908;51.426;7.714;2023-05-20T06:08:22;100389.25;;;11.27;100.00
71195;BME280;58908;51.426;7.714;2023-05-20T06:10:48;100391.06;;;11.27;100.00
71195;BME280;58908;51.426;7.714;2023-05-20T06:13:15;100397.81;;;11.49;100.00
71195;BME280;58908;51.426;7.714;2023-05-20T06:15:42;100393.16;;;11.54;100.00
71195;BME280;58908;51.426;7.714;2023-05-20T06:18:10;100390.22;;;11.43;100.00
71195;BME280;58908;51.426;7.714;2023-05-20T06:20:37;100393.94;;;11.56;100.00
71195;BME280;58908;51.426;7.714;2023-05-20T06:23:03;100391.00;;;11.45;100.00
71195;BME280;58908;51.426;7.714;2023-05-20T06:25:29;100386.09;;;11.38;100.00
71195;BME280;58908;51.426;7.714;2023-05-20T06:27:55;100385.00;;;11.42;100.00
71195;BME280;58908;51.426;7.714;2023-05-20T06:30:22;100381.59;;;11.40;100.00
71195;BME280;58908;51.426;7.714;2023-05-20T06:32:49;100382.34;;;11.42;100.00
71195;BME280;58908;51.426;7.714;2023-05-20T06:35:15;100375.44;;;11.56;100.00
71195;BME280;58908;51.426;7.714;2023-05-20T06:37:42;100388.09;;;11.33;100.00
71195;BME280;58908;51.426;7.714;2023-05-20T06:40:09;100377.03;;;11.60;100.00
71195;BME280;58908;51.426;7.714;2023-05-20T06:42:35;100375.38;;;11.75;100.00
71195;BME280;58908;51.426;7.714;2023-05-20T06:45:02;100367.69;;;11.70;100.00
71195;BME280;58908;51.426;7.714;2023-05-20T06:47:28;100371.50;;;11.82;100.00
71195;BME280;58908;51.426;7.714;2023-05-20T06:49:55;100376.72;;;11.98;100.00
71195;BME280;58908;51.426;7.714;2023-05-20T06:52:21;100375.84;;;11.66;100.00
71195;BME280;58908;51.426;7.714;2023-05-20T06:54:48;100367.38;;;11.76;100.00
71195;BME280;58908;51.426;7.714;2023-05-20T06:57:14;100365.81;;;11.89;100.00
71195;BME280;58908;51.426;7.714;2023-05-20T06:59:40;100368.00;;;12.13;100.00
71195;BME280;58908;51.426;7.714;2023-05-20T07:02:06;100363.66;;;12.12;100.00
71195;BME280;58908;51.426;7.714;2023-05-20T07:04:33;100367.25;;;12.42;100.00
71195;BME280;58908;51.426;7.714;2023-05-20T07:07:00;100361.97;;;12.58;100.00
71195;BME280;58908;51.426;7.714;2023-05-20T07:09:26;100359.94;;;12.63;100.00
71195;BME280;58908;51.426;7.714;2023-05-20T07:11:53;100369.22;;;12.54;100.00
71195;BME280;58908;51.426;7.714;2023-05-20T07:14:19;100363.56;;;12.14;100.00
71195;BME280;58908;51.426;7.714;2023-05-20T07:16:45;100358.13;;;12.63;100.00
71195;BME280;58908;51.426;7.714;2023-05-20T07:19:11;100356.97;;;12.05;100.00
71195;BME280;58908;51.426;7.714;2023-05-20T07:21:37;100355.00;;;11.93;100.00
71195;BME280;58908;51.426;7.714;2023-05-20T07:24:05;100354.16;;;12.08;100.00
71195;BME280;58908;51.426;7.714;2023-05-20T07:26:31;100352.00;;;11.99;100.00
71195;BME280;58908;51.426;7.714;2023-05-20T07:29:00;100354.94;;;12.26;100.00
71195;BME280;58908;51.426;7.714;2023-05-20T07:31:26;100355.03;;;12.09;100.00
71195;BME280;58908;51.426;7.714;2023-05-20T07:33:52;100345.91;;;11.82;100.00
71195;BME280;58908;51.426;7.714;2023-05-20T07:36:19;100350.53;;;11.79;100.00
71195;BME280;58908;51.426;7.714;2023-05-20T07:38:45;100351.00;;;12.02;100.00
71195;BME280;58908;51.426;7.714;2023-05-20T07:41:13;100340.88;;;12.25;100.00
71195;BME280;58908;51.426;7.714;2023-05-20T07:43:39;100347.41;;;12.03;100.00
71195;BME280;58908;51.426;7.714;2023-05-20T07:46:05;100342.31;;;12.15;100.00
71195;BME280;58908;51.426;7.714;2023-05-20T07:48:32;100345.44;;;12.39;100.00
71195;BME280;58908;51.426;7.714;2023-05-20T07:50:58;100340.91;;;11.93;100.00
71195;BME280;58908;51.426;7.714;2023-05-20T07:53:24;100335.22;;;12.16;100.00
71195;BME280;58908;51.426;7.714;2023-05-20T07:55:51;100342.50;;;12.12;100.00
71195;BME280;58908;51.426;7.714;2023-05-20T07:58:18;100343.19;;;12.31;100.00
71195;BME280;58908;51.426;7.714;2023-05-20T08:00:44;100339.53;;;12.49;100.00
71195;BME280;58908;51.426;7.714;2023-05-20T08:03:11;100340.81;;;12.42;100.00
71195;BME280;58908;51.426;7.714;2023-05-20T08:05:38;100340.97;;;12.39;100.00
71195;BME280;58908;51.426;7.714;2023-05-20T08:08:04;100345.75;;;12.33;100.00
71195;BME280;58908;51.426;7.714;2023-05-20T08:10:30;100343.97;;;12.18;100.00
71195;BME280;58908;51.426;7.714;2023-05-20T08:12:57;100343.19;;;12.47;100.00
71195;BME280;58908;51.426;7.714;2023-05-20T08:15:24;100344.91;;;12.48;100.00
71195;BME280;58908;51.426;7.714;2023-05-20T08:17:50;100343.72;;;12.22;100.00
71195;BME280;58908;51.426;7.714;2023-05-20T08:20:17;100338.66;;;12.18;100.00
71195;BME280;58908;51.426;7.714;2023-05-20T08:22:43;100341.16;;;12.36;100.00
71195;BME280;58908;51.426;7.714;2023-05-20T08:25:09;100336.44;;;12.41;100.00
71195;BME280;58908;51.426;7.714;2023-05-20T08:27:35;100336.13;;;12.47;100.00
71195;BME280;58908;51.426;7.714;2023-05-20T08:30:02;100342.19;;;12.65;100.00
71195;BME280;58908;51.426;7.714;2023-05-20T08:32:30;100345.94;;;12.61;100.00
71195;BME280;58908;51.426;7.714;2023-05-20T08:34:56;100351.19;;;12.92;100.00
71195;BME280;58908;51.426;7.714;2023-05-20T08:37:25;100346.34;;;12.84;100.00
71195;BME280;58908;51.426;7.714;2023-05-20T08:39:51;100345.84;;;12.78;100.00
71195;BME280;58908;51.426;7.714;2023-05-20T08:42:19;100351.22;;;12.76;100.00
71195;BME280;58908;51.426;7.714;2023-05-20T08:44:46;100355.06;;;12.71;100.00
71195;BME280;58908;51.426;7.714;2023-05-20T08:47:13;100347.53;;;12.79;100.00
71195;BME280;58908;51.426;7.714;2023-05-20T08:49:40;100348.72;;;12.89;100.00
71195;BME280;58908;51.426;7.714;2023-05-20T08:52:07;100351.13;;;12.78;100.00
71195;BME280;58908;51.426;7.714;2023-05-20T08:54:36;100350.88;;;12.82;100.00
71195;BME280;58908;51.426;7.714;2023-05-20T08:57:08;100351.31;;;12.75;100.00
71195;BME280;58908;51.426;7.714;2023-05-20T08:59:34;100345.50;;;12.99;100.00
71195;BME280;58908;51.426;7.714;2023-05-20T09:02:01;100341.53;;;12.91;100.00
71195;BME280;58908;51.426;7.714;2023-05-20T09:04:27;100337.28;;;13.04;100.00
71195;BME280;58908;51.426;7.714;2023-05-20T09:06:55;100334.06;;;13.28;100.00
71195;BME280;58908;51.426;7.714;2023-05-20T09:09:21;100334.59;;;13.19;100.00
71195;BME280;58908;51.426;7.714;2023-05-20T09:11:47;100332.34;;;13.27;100.00
71195;BME280;58908;51.426;7.714;2023-05-20T09:14:13;100332.00;;;13.33;100.00
71195;BME280;58908;51.426;7.714;2023-05-20T09:16:40;100328.63;;;13.45;100.00
71195;BME280;58908;51.426;7.714;2023-05-20T09:19:06;100335.09;;;13.26;100.00
71195;BME280;58908;51.426;7.714;2023-05-20T09:21:34;100329.94;;;13.52;100.00
71195;BME280;58908;51.426;7.714;2023-05-20T09:24:02;100326.81;;;13.46;100.00
71195;BME280;58908;51.426;7.714;2023-05-20T09:26:29;100331.34;;;13.44;100.00
71195;BME280;58908;51.426;7.714;2023-05-20T09:28:55;100333.00;;;13.74;100.00
71195;BME280;58908;51.426;7.714;2023-05-20T09:31:24;100329.00;;;13.53;100.00
71195;BME280;58908;51.426;7.714;2023-05-20T09:33:51;100335.56;;;13.62;100.00
71195;BME280;58908;51.426;7.714;2023-05-20T09:36:17;100330.84;;;13.67;100.00
71195;BME280;58908;51.426;7.714;2023-05-20T09:38:44;100330.09;;;13.79;100.00
71195;BME280;58908;51.426;7.714;2023-05-20T09:41:12;100331.41;;;14.00;100.00
71195;BME280;58908;51.426;7.714;2023-05-20T09:43:39;100326.78;;;13.89;100.00
71195;BME280;58908;51.426;7.714;2023-05-20T09:46:06;100322.25;;;13.91;100.00
71195;BME280;58908;51.426;7.714;2023-05-20T09:48:34;100325.84;;;14.04;100.00
71195;BME280;58908;51.426;7.714;2023-05-20T09:51:01;100315.78;;;14.09;100.00
71195;BME280;58908;51.426;7.714;2023-05-20T09:53:28;100318.66;;;14.34;100.00
71195;BME280;58908;51.426;7.714;2023-05-20T09:55:54;100303.19;;;14.41;100.00
71195;BME280;58908;51.426;7.714;2023-05-20T09:58:22;100308.53;;;14.53;100.00
71195;BME280;58908;51.426;7.714;2023-05-20T10:00:49;100309.88;;;14.86;100.00
71195;BME280;58908;51.426;7.714;2023-05-20T10:03:15;100306.75;;;14.80;100.00
71195;BME280;58908;51.426;7.714;2023-05-20T10:05:44;100302.81;;;15.12;100.00
71195;BME280;58908;51.426;7.714;2023-05-20T10:10:56;100304.41;;;15.02;100.00
71195;BME280;58908;51.426;7.714;2023-05-20T10:13:33;100294.72;;;14.74;100.00
71195;BME280;58908;51.426;7.714;2023-05-20T10:16:05;100295.69;;;15.51;100.00
71195;BME280;58908;51.426;7.714;2023-05-20T10:18:38;100295.38;;;15.81;100.00
71195;BME280;58908;51.426;7.714;2023-05-20T10:21:13;100292.72;;;15.81;100.00
71195;BME280;58908;51.426;7.714;2023-05-20T10:23:40;100285.97;;;16.13;100.00
71195;BME280;58908;51.426;7.714;2023-05-20T10:26:06;100285.16;;;15.87;100.00
71195;BME280;58908;51.426;7.714;2023-05-20T10:28:34;100284.50;;;15.96;100.00
71195;BME280;58908;51.426;7.714;2023-05-20T10:31:01;100279.75;;;16.37;99.30
71195;BME280;58908;51.426;7.714;2023-05-20T10:33:27;100268.66;;;16.31;99.02
71195;BME280;58908;51.426;7.714;2023-05-20T10:35:56;100269.38;;;16.58;98.56
71195;BME280;58908;51.426;7.714;2023-05-20T10:38:23;100275.47;;;16.47;98.71
71195;BME280;58908;51.426;7.714;2023-05-20T10:40:49;100271.28;;;16.07;99.26
71195;BME280;58908;51.426;7.714;2023-05-20T10:43:16;100274.00;;;16.90;98.92
71195;BME280;58908;51.426;7.714;2023-05-20T10:45:52;100270.72;;;16.63;98.53
71195;BME280;58908;51.426;7.714;2023-05-20T10:48:19;100264.31;;;16.66;97.98
71195;BME280;58908;51.426;7.714;2023-05-20T10:50:45;100262.16;;;16.94;98.06
71195;BME280;58908;51.426;7.714;2023-05-20T10:53:12;100262.31;;;17.38;95.38
71195;BME280;58908;51.426;7.714;2023-05-20T10:55:39;100254.63;;;16.88;96.67
71195;BME280;58908;51.426;7.714;2023-05-20T10:58:06;100258.63;;;17.17;97.55
71195;BME280;58908;51.426;7.714;2023-05-20T11:00:33;100253.25;;;16.83;95.69
71195;BME280;58908;51.426;7.714;2023-05-20T11:03:01;100251.59;;;17.27;95.74
71195;BME280;58908;51.426;7.714;2023-05-20T11:05:28;100249.09;;;17.02;95.18
71195;BME280;58908;51.426;7.714;2023-05-20T11:07:59;100251.50;;;16.94;96.65
71195;BME280;58908;51.426;7.714;2023-05-20T11:10:26;100243.28;;;16.97;97.66
71195;BME280;58908;51.426;7.714;2023-05-20T11:12:52;100243.66;;;17.03;95.99
71195;BME280;58908;51.426;7.714;2023-05-20T11:15:18;100240.78;;;17.17;97.16
71195;BME280;58908;51.426;7.714;2023-05-20T11:17:51;100235.75;;;17.02;95.80
71195;BME280;58908;51.426;7.714;2023-05-20T11:20:19;100231.28;;;17.37;93.52
71195;BME280;58908;51.426;7.714;2023-05-20T11:22:46;100237.03;;;17.20;95.66
71195;BME280;58908;51.426;7.714;2023-05-20T11:25:12;100225.06;;;17.25;95.49
71195;BME280;58908;51.426;7.714;2023-05-20T11:27:38;100226.09;;;17.12;93.37
71195;BME280;58908;51.426;7.714;2023-05-20T11:30:05;100224.16;;;17.14;92.92
71195;BME280;58908;51.426;7.714;2023-05-20T11:32:32;100219.56;;;17.16;92.73
71195;BME280;58908;51.426;7.714;2023-05-20T11:34:58;100207.53;;;17.45;92.88
71195;BME280;58908;51.426;7.714;2023-05-20T11:37:26;100212.66;;;17.81;93.36
71195;BME280;58908;51.426;7.714;2023-05-20T11:40:01;100206.47;;;17.13;90.58
71195;BME280;58908;51.426;7.714;2023-05-20T11:42:31;100220.63;;;17.48;91.60
71195;BME280;58908;51.426;7.714;2023-05-20T11:44:58;100201.75;;;17.51;90.53
71195;BME280;58908;51.426;7.714;2023-05-20T11:47:24;100197.97;;;17.75;90.99
71195;BME280;58908;51.426;7.714;2023-05-20T11:49:52;100202.31;;;17.54;89.60
71195;BME280;58908;51.426;7.714;2023-05-20T11:52:18;100209.13;;;17.58;89.41
71195;BME280;58908;51.426;7.714;2023-05-20T11:54:50;100200.75;;;17.41;89.13
71195;BME280;58908;51.426;7.714;2023-05-20T11:57:17;100202.31;;;17.65;88.71
71195;BME280;58908;51.426;7.714;2023-05-20T11:59:44;100200.88;;;17.50;88.40
71195;BME280;58908;51.426;7.714;2023-05-20T12:02:10;100193.59;;;17.41;88.55
71195;BME280;58908;51.426;7.714;2023-05-20T12:04:36;100198.31;;;17.71;90.17
71195;BME280;58908;51.426;7.714;2023-05-20T12:07:03;100201.78;;;17.27;89.29
71195;BME280;58908;51.426;7.714;2023-05-20T12:09:33;100200.03;;;17.50;91.40
71195;BME280;58908;51.426;7.714;2023-05-20T12:12:01;100201.06;;;17.25;90.67
71195;BME280;58908;51.426;7.714;2023-05-20T12:14:27;100199.31;;;17.02;90.69
71195;BME280;58908;51.426;7.714;2023-05-20T12:16:53;100202.38;;;17.20;91.12
71195;BME280;58908;51.426;7.714;2023-05-20T12:19:19;100201.84;;;17.04;91.81
71195;BME280;58908;51.426;7.714;2023-05-20T12:21:46;100203.22;;;17.20;92.33
71195;BME280;58908;51.426;7.714;2023-05-20T12:24:12;100202.44;;;16.96;92.49
71195;BME280;58908;51.426;7.714;2023-05-20T12:26:38;100197.69;;;16.89;91.64
71195;BME280;58908;51.426;7.714;2023-05-20T12:29:06;100197.78;;;16.88;92.65
71195;BME280;58908;51.426;7.714;2023-05-20T12:31:32;100192.88;;;16.94;93.93
71195;BME280;58908;51.426;7.714;2023-05-20T12:33:58;100190.94;;;16.96;93.52
71195;BME280;58908;51.426;7.714;2023-05-20T12:36:25;100186.56;;;16.95;95.07
71195;BME280;58908;51.426;7.714;2023-05-20T12:38:51;100185.47;;;16.97;93.01
71195;BME280;58908;51.426;7.714;2023-05-20T12:41:18;100190.06;;;16.95;93.83
71195;BME280;58908;51.426;7.714;2023-05-20T12:43:44;100186.34;;;16.98;93.76
71195;BME280;58908;51.426;7.714;2023-05-20T12:46:11;100184.53;;;17.09;92.75